Huntington Beach, CA

3:54 PM PDT on October 20, 2014 (GMT -0700)
Bolsa Chica Wetlands | Change Station
CLOSE
Current Station
Personal Weather Station
Location: Huntington Beach, CA
Elevation: 0 m
Nearby Weather Stations

Elev 0 m 33.71 °N, 118.03 °W | Updated 40 seconds ago

Partly Cloudy
Partly Cloudy
23.3 °C
Feels Like 24 °C
N
9.7
Wind Variable Wind from WSW
Gusts 12.9 km/h

Today
High -- | Low -- °C
--% Chance of Precip.
Yesterday
High -- | Low -- °C
Precip. -- mm
7:00 AM 6:12 PM
Waning Crescent, 8% visible
Pressure 1012 hPa
Visibility 16.1 kilometers
Clouds Scattered Clouds 7620 m
Heat Index 24 °C
Dew Point 18 °C
Humidity 73%
Rainfall 0 mm
Snow Depth Not available.
UV 3 out of 12
Pollen 3.50 out of 12
Ozone Good
Flu Activity Sporadic
METAR KSLI 202158Z 20010KT 10SM SCT250 24/17 A2988 RMK AO2A SLP121 T02400170

More Conditions Fewer Conditions

Pressure 1012 hPa
Visibility 16.1 kilometers
Clouds Scattered Clouds 7620 m
Heat Index 24 °C
Dew Point 18 °C
Humidity 73%
Rainfall 0 mm
Snow Depth Not available.
UV 3 out of 12
Pollen 3.50 out of 12
Ozone Good
Flu Activity Sporadic
METAR KSLI 202158Z 20010KT 10SM SCT250 24/17 A2988 RMK AO2A SLP121 T02400170

More Conditions Fewer Conditions

10-Day Weather Forecast

Almanac

Astronomy

Oct. 20, 2014 Rise Set
Actual Time 7:00 AM PDT 6:12 PM PDT
Civil Twilight 6:35 AM PDT 6:37 PM PDT
Nautical Twilight 6:06 AM PDT 7:06 PM PDT
Astronomical Twilight 5:37 AM PDT 7:35 PM PDT
Moon 4:02 AM PDT 4:29 PM PDT
Length of Visible Light 12h 01m
Length of Day
11h 11m
Waning Crescent, 8% of the Moon is Illuminated
Today
Waning Crescent
Oct 23
New
Oct 30
First Quarter
Nov 6
Full
Nov 14
Last Quarter

Today's Extremes

State Highs State Lows

Community

WunderPhotos

Upload Photos

1,763,541 photos uploaded!

WunderBlogs® & News

By Dr. Jeff Masters
Director of Meteorology, Weather Underground
By Kari Strenfel
Meteorologist, Weather Underground
By Christopher C. Burt
Weather Historian, Weather Underground
October 20, 2014
October 20, 2014
October 20, 2014

Nearby

Air Quality

  Air Quality AQ Index Pollutant
Yesterday Good
OZONE
Current Good
OZONE
Tuesday Good
PM10
Tuesday Good
OZONE
Tuesday Good
CO
Tuesday Good
NO2

Snow Depth

Station Depth Elevation
Leavitt Lake 0 in 9400 ft
Leavitt Meadows 0 in 7200 ft
Sonora Pass 0 in 8800 ft
Summit Meadow 0 in 9122 ft
Burnside Lake 0 in 8139 ft

Earthquake Activity

City Distance Mag. Time & Date
Fort Irwin, California 199 kilometers 3.1 6:03 AM PDT
2014-10-17
Minimum magnitude displayed is 2.5.

Coastal Water Temperatures

Place Temperature
Santa Monica Pier 21.7 °C
Los Angeles, CA 21.1 °C
La Jolla, CA 21.7 °C

Nearby Weather Stations